createdAt,value
2022-08-03T04:05:18.315Z,4.50
2022-08-03T04:08:39.937Z,4.18
2022-08-03T04:11:51.346Z,4.60
2022-08-03T04:14:56.756Z,4.40
2022-08-03T04:17:59.670Z,4.35
2022-08-03T04:21:05.839Z,4.55
2022-08-03T04:27:14.085Z,4.35
2022-08-03T04:30:16.370Z,4.43
2022-08-03T04:33:19.986Z,4.70
2022-08-03T04:36:25.908Z,4.70
2022-08-03T04:39:31.381Z,5.12
2022-08-03T04:42:34.410Z,5.25
2022-08-03T04:45:37.887Z,4.82
2022-08-03T04:48:44.371Z,5.00
2022-08-03T04:51:49.121Z,4.87
2022-08-03T04:54:51.322Z,4.85
2022-08-03T04:57:53.674Z,5.05
2022-08-03T05:00:55.749Z,5.45
2022-08-03T05:03:58.128Z,5.60
2022-08-03T05:07:00.205Z,6.07
2022-08-03T05:10:15.797Z,5.53
2022-08-03T05:13:18.286Z,5.47
2022-08-03T05:16:20.642Z,5.53
2022-08-03T05:19:22.725Z,6.15
2022-08-03T05:22:25.066Z,5.75
2022-08-03T05:25:27.503Z,6.03
2022-08-03T05:28:31.724Z,5.97
2022-08-03T05:31:33.858Z,6.00
2022-08-03T05:34:36.188Z,6.30
2022-08-03T05:37:38.284Z,5.85
2022-08-03T05:41:20.990Z,5.85
2022-08-03T05:44:20.605Z,5.90
2022-08-03T05:47:23.020Z,5.37
2022-08-03T05:50:25.083Z,6.37
2022-08-03T05:53:27.458Z,6.05
2022-08-03T05:56:29.551Z,5.80
2022-08-03T05:59:38.812Z,5.57
2022-08-03T06:02:41.231Z,6.10
2022-08-03T06:05:55.490Z,5.35
2022-08-03T06:09:02.575Z,5.50
2022-08-03T06:12:05.318Z,5.90
2022-08-03T06:15:08.070Z,8.15
2022-08-03T06:18:13.951Z,6.57
2022-08-03T06:21:16.395Z,6.53
2022-08-03T06:24:18.808Z,6.53
2022-08-03T06:27:29.358Z,6.30
2022-08-03T06:30:40.470Z,6.25
2022-08-03T06:34:31.051Z,6.93
2022-08-03T06:37:05.026Z,7.05
2022-08-03T06:40:07.594Z,6.95
2022-08-03T06:43:12.535Z,7.68
2022-08-03T06:46:14.927Z,7.12
2022-08-03T06:49:17.317Z,6.80
2022-08-03T06:52:37.566Z,6.37
2022-08-03T06:55:42.410Z,6.72
2022-08-03T06:58:44.673Z,6.95
2022-08-03T07:01:47.131Z,7.12
2022-08-03T07:04:49.302Z,7.30
2022-08-03T07:07:55.647Z,7.15
2022-08-03T07:10:57.798Z,7.00
2022-08-03T07:14:00.136Z,6.75
2022-08-03T07:17:04.657Z,6.97
2022-08-03T07:20:15.187Z,7.18
2022-08-03T07:23:19.263Z,7.35
2022-08-03T07:26:21.908Z,6.80
2022-08-03T07:29:23.977Z,7.60
2022-08-03T07:32:26.818Z,6.93
2022-08-03T07:35:28.918Z,7.20
2022-08-03T07:38:31.298Z,7.15
2022-08-03T07:41:33.545Z,7.15
2022-08-03T07:44:36.557Z,7.93
2022-08-03T07:47:38.633Z,7.72
2022-08-03T07:50:40.963Z,7.35
2022-08-03T07:53:47.295Z,8.00
2022-08-03T07:56:50.251Z,7.12
2022-08-03T08:00:01.835Z,7.43
2022-08-03T08:03:14.062Z,8.00
2022-08-03T08:06:16.529Z,7.40
2022-08-03T08:09:18.621Z,7.32
2022-08-03T08:12:21.137Z,6.72
2022-08-03T08:15:23.510Z,7.30
2022-08-03T08:18:25.836Z,7.57
2022-08-03T08:22:01.802Z,7.68
2022-08-03T08:24:50.769Z,6.70
2022-08-03T08:28:31.261Z,6.93
2022-08-03T08:31:17.044Z,7.20
2022-08-03T08:34:19.134Z,7.57
2022-08-03T08:37:21.534Z,7.22
2022-08-03T08:40:23.670Z,7.70
2022-08-03T08:43:26.018Z,7.43
2022-08-03T08:46:32.019Z,6.62
2022-08-03T08:49:39.730Z,6.75
2022-08-03T08:52:43.422Z,7.70
2022-08-03T08:55:59.548Z,7.12
2022-08-03T08:59:02.833Z,7.50
2022-08-03T09:02:06.082Z,6.72
2022-08-03T09:05:16.987Z,7.05
2022-08-03T09:08:19.603Z,7.45
2022-08-03T09:11:55.707Z,7.35
2022-08-03T09:15:07.447Z,6.97
2022-08-03T09:18:09.570Z,7.22
2022-08-03T09:21:32.037Z,6.50
2022-08-03T09:24:41.632Z,6.47
2022-08-03T09:27:46.419Z,6.32
2022-08-03T09:31:00.701Z,5.72
2022-08-03T09:34:08.298Z,5.62
2022-08-03T09:37:16.134Z,7.03
2022-08-03T09:40:34.603Z,6.22
2022-08-03T09:43:46.697Z,7.10
2022-08-03T09:46:54.930Z,6.82
2022-08-03T09:50:01.881Z,5.87
2022-08-03T09:53:04.283Z,5.45
2022-08-03T09:56:35.898Z,5.65
2022-08-03T09:59:31.950Z,6.20
2022-08-03T10:05:36.322Z,6.35
2022-08-03T10:08:38.413Z,6.00
2022-08-03T10:11:42.644Z,6.47
2022-08-03T10:14:46.604Z,5.95
2022-08-03T10:17:49.261Z,5.90
2022-08-03T10:20:53.789Z,6.05
2022-08-03T10:23:56.782Z,5.53
2022-08-03T10:27:07.437Z,6.10
2022-08-03T10:30:11.750Z,6.03
2022-08-03T10:33:50.844Z,5.78
2022-08-03T10:36:55.706Z,5.68
2022-08-03T10:39:59.997Z,6.15
2022-08-03T10:43:25.975Z,5.43
2022-08-03T10:46:28.986Z,5.62
2022-08-03T10:49:34.313Z,6.10
2022-08-03T10:52:54.037Z,5.87
2022-08-03T10:56:14.886Z,6.15
2022-08-03T10:59:47.201Z,5.87
2022-08-03T11:03:09.370Z,5.82
2022-08-03T11:06:18.945Z,5.90
2022-08-03T11:09:21.306Z,5.55
2022-08-03T11:12:32.731Z,5.62
2022-08-03T11:15:35.982Z,5.97
2022-08-03T11:18:56.217Z,6.10
2022-08-03T11:21:59.072Z,5.70
2022-08-03T11:25:01.734Z,5.80
2022-08-03T11:28:28.211Z,5.22
2022-08-03T11:31:49.390Z,4.95
2022-08-03T11:35:09.050Z,4.45
2022-08-03T11:38:12.982Z,4.47
2022-08-03T11:41:33.338Z,4.72
2022-08-03T11:44:47.492Z,4.20
2022-08-03T11:47:53.952Z,4.78
2022-08-03T11:50:56.819Z,4.68
2022-08-03T11:54:04.489Z,4.50
2022-08-03T11:57:06.742Z,5.03
2022-08-03T12:00:30.464Z,4.85
2022-08-03T12:03:34.745Z,4.97
2022-08-03T12:06:55.165Z,4.40
2022-08-03T12:10:08.526Z,4.35
2022-08-03T12:14:26.937Z,4.60
2022-08-03T12:16:32.969Z,4.43
2022-08-03T12:19:44.670Z,4.20
2022-08-03T12:22:47.010Z,4.80
2022-08-03T12:25:49.580Z,4.28
2022-08-03T12:28:52.383Z,4.75
2022-08-03T12:31:55.930Z,4.53
2022-08-03T12:35:01.305Z,4.22
2022-08-03T12:38:04.075Z,5.05
2022-08-03T12:41:11.774Z,4.82
2022-08-03T12:44:13.904Z,5.05
2022-08-03T12:47:16.469Z,4.93
2022-08-03T12:50:31.322Z,4.70
2022-08-03T12:53:35.517Z,5.50
2022-08-03T12:57:00.162Z,4.87
2022-08-03T13:00:17.454Z,4.90
2022-08-03T13:03:42.702Z,5.07
2022-08-03T13:07:03.005Z,5.47
2022-08-03T13:10:08.135Z,4.68
2022-08-03T13:13:10.779Z,4.97
2022-08-03T13:16:18.769Z,4.95
2022-08-03T13:19:21.591Z,4.97
2022-08-03T13:22:25.795Z,5.20
2022-08-03T13:25:28.157Z,5.20
2022-08-03T13:28:30.247Z,4.78
2022-08-03T13:31:32.585Z,4.82
2022-08-03T13:34:34.834Z,4.30
2022-08-03T13:37:38.026Z,4.72
2022-08-03T13:40:41.825Z,4.80
2022-08-03T13:43:44.295Z,4.53
2022-08-03T13:46:49.184Z,4.57
2022-08-03T13:49:54.177Z,4.40
2022-08-03T13:53:02.690Z,4.18
2022-08-03T13:56:05.058Z,4.40
2022-08-03T13:59:07.147Z,4.30
2022-08-03T14:02:09.548Z,5.07
2022-08-03T14:05:11.937Z,4.55
2022-08-03T14:08:14.039Z,4.55
2022-08-03T14:11:17.526Z,4.57
2022-08-03T14:14:19.638Z,4.72
2022-08-03T14:17:23.263Z,4.68
2022-08-03T14:20:36.800Z,4.28
